Nichioh Maru — JD3267 — position and weather

sailwx.info

Track history (hours):
 
Tides and Currents Weather Stations Pressure Air Temp Water Temp Dewpoint Dewpoint Depression Visibility Wind Speed Wind Dir Waves Ship Positions

Nichioh Maru

Last reported at 2014-Sep-20 12:09 UTC. Time now 2014-Sep-21 00:02 UTC.
Position N 35°04' E 139°39'.

Length 170 m; draft 6.5 m.

Type: Cargo ship. MMSI: 431003232.

Date/timePositionNaut miles runAvg speedWind from/ knotsBaromVisibWave heightAir tempDewpointWater temp
2014-Sep-20 12:09N 35°04' E 139°39'1017.3
2014-Sep-20 11:33N 35°13' E 139°46'1111.2
2014-Sep-20 10:34N 35°24' E 139°43'7 7.1
2014-Sep-20 09:33N 35°30' E 139°46'0 0.0
2014-Sep-20 08:33N 35°30' E 139°46'0 0.0
2014-Sep-20 07:33N 35°30' E 139°46'0 0.0
2014-Sep-20 06:24N 35°30' E 139°46'0 0.0
2014-Sep-20 05:24N 35°30' E 139°46'0 0.0
2014-Sep-20 04:33N 35°30' E 139°46'7 6.7
2014-Sep-20 03:33N 35°24' E 139°46'7 7.3
2014-Sep-20 02:32N 35°19' E 139°39'0 0.0
2014-Sep-20 01:32N 35°19' E 139°39'0 0.0
2014-Sep-20 00:29N 35°19' E 139°39'0 0.0
2014-Sep-19 23:32N 35°19' E 139°39'0 0.1
2014-Sep-19 22:34N 35°19' E 139°39'8 8.0
2014-Sep-19 21:33N 35°14' E 139°47'24615.4
2014-Sep-19 05:33N 34°08' E 134°59'1919.3
2014-Sep-19 04:33N 34°26' E 135°05'1616.3
2014-Sep-19 03:33N 34°41' E 135°15'1 0.9
2014-Sep-19 02:32N 34°41' E 135°13'0 0.0
2014-Sep-19 01:32N 34°41' E 135°13'0 0.0
2014-Sep-19 00:32N 34°41' E 135°13'0 0.0
2014-Sep-18 23:32N 34°41' E 135°13'3 2.8
2014-Sep-18 22:33N 34°39' E 135°16'3 2.3
2014-Sep-18 21:23N 34°36' E 135°15'0 0.0
2014-Sep-18 20:29N 34°36' E 135°15'0 0.0
2014-Sep-18 19:29N 34°36' E 135°15'0 0.0
2014-Sep-18 18:29N 34°36' E 135°15'0 0.0
2014-Sep-18 17:29N 34°36' E 135°15'0 0.0
2014-Sep-18 16:32N 34°36' E 135°15'0 0.1
2014-Sep-18 15:32N 34°36' E 135°15'0 0.0
2014-Sep-18 14:29N 34°36' E 135°15'0 0.0
2014-Sep-18 13:29N 34°36' E 135°15'0 0.0
2014-Sep-18 12:29N 34°36' E 135°15'0 0.0
2014-Sep-18 11:32N 34°36' E 135°15'1 1.3
2014-Sep-18 10:33N 34°36' E 135°14'1717.3
2014-Sep-18 09:33N 34°35' E 134°53'  
2014-Sep-15 03:13N 34°33' E 134°47'1420.7
2014-Sep-15 02:33N 34°36' E 135°03'9 9.1
2014-Sep-15 01:31N 34°41' E 135°13'0 0.0
2014-Sep-15 00:31N 34°41' E 135°13'0 0.0
2014-Sep-14 23:33N 34°41' E 135°13'1 1.1
2014-Sep-14 22:33N 34°40' E 135°15'1211.5
2014-Sep-14 21:33N 34°30' E 135°10'1313.5
2014-Sep-14 20:33N 34°19' E 135°00'1313.4
2014-Sep-14 19:33N 34°05' E 134°60'226 7.8
2014-Sep-13 14:25N 34°58' E 139°27'1720.2
2014-Sep-13 13:33N 35°08' E 139°44'1413.6
2014-Sep-13 12:33N 35°21' E 139°42'10 9.5
2014-Sep-13 11:33N 35°30' E 139°46'0 0.0
2014-Sep-13 10:33N 35°30' E 139°46'0 0.0
2014-Sep-13 09:33N 35°30' E 139°46'0 0.0
2014-Sep-13 08:33N 35°30' E 139°46'0 0.0
2014-Sep-13 07:33N 35°30' E 139°46'0 0.0
2014-Sep-13 06:33N 35°30' E 139°46'0 0.0
2014-Sep-13 05:34N 35°30' E 139°46'0 0.0
2014-Sep-13 04:34N 35°30' E 139°46'5 5.0
2014-Sep-13 03:34N 35°25' E 139°45'8 8.0
2014-Sep-13 02:31N 35°19' E 139°39'0 0.0
2014-Sep-13 01:28N 35°19' E 139°39'0 0.0
2014-Sep-13 00:31N 35°19' E 139°39'0 0.0
2014-Sep-12 23:31N 35°19' E 139°39'0 0.1
2014-Sep-12 22:33N 35°19' E 139°39'8 8.2
2014-Sep-12 21:33N 35°14' E 139°47'24815.2
2014-Sep-12 05:13N 34°08' E 134°56'1418.8
2014-Sep-12 04:29N 34°21' E 134°60'1718.5
2014-Sep-12 03:33N 34°34' E 135°13'6 5.6
2014-Sep-12 02:24N 34°41' E 135°13'0 0.0
2014-Sep-12 01:24N 34°41' E 135°13'0 0.0
2014-Sep-12 00:24N 34°41' E 135°13'0 0.0
2014-Sep-11 23:33N 34°41' E 135°13'1 0.9
2014-Sep-11 22:33N 34°40' E 135°15'4 4.2
2014-Sep-11 21:33N 34°36' E 135°16'0 0.0
2014-Sep-11 20:33N 34°36' E 135°16'0 0.1
2014-Sep-11 19:33N 34°36' E 135°16'0 0.0
2014-Sep-11 18:27N 34°36' E 135°16'0 0.0
2014-Sep-11 17:33N 34°36' E 135°16'0 0.0
2014-Sep-11 16:33N 34°36' E 135°16'0 0.0
2014-Sep-11 15:33N 34°36' E 135°16'0 0.1
2014-Sep-11 14:33N 34°36' E 135°16'0 0.0
2014-Sep-11 13:33N 34°36' E 135°16'0 0.1
2014-Sep-11 12:33N 34°36' E 135°16'0 0.0
2014-Sep-11 11:33N 34°36' E 135°16'0 0.1
2014-Sep-11 10:33N 34°36' E 135°16'0 0.0
2014-Sep-11 09:33N 34°36' E 135°16'0 0.0
2014-Sep-11 08:33N 34°36' E 135°16'0 0.0
2014-Sep-11 07:27N 34°36' E 135°16'1516.5
2014-Sep-11 06:32N 34°37' E 134°58'  
Track history (hours):
 
Tides and Currents Weather Stations Pressure Air Temp Water Temp Dewpoint Dewpoint Depression Visibility Wind Speed Wind Dir Waves Ship Positions

Nichioh Maru

Last reported at 2014-Sep-20 12:09 UTC. Time now 2014-Sep-21 00:02 UTC.
Position N 35°04' E 139°39'.

Length 170 m; draft 6.5 m.

Type: Cargo ship. MMSI: 431003232.

Date/timePositionNaut miles runAvg speedWind from/ knotsBaromVisibWave heightAir tempDewpointWater temp
2014-Sep-20 12:09N 35°04' E 139°39'1017.3
2014-Sep-20 11:33N 35°13' E 139°46'1111.2
2014-Sep-20 10:34N 35°24' E 139°43'7 7.1
2014-Sep-20 09:33N 35°30' E 139°46'0 0.0
2014-Sep-20 08:33N 35°30' E 139°46'0 0.0
2014-Sep-20 07:33N 35°30' E 139°46'0 0.0
2014-Sep-20 06:24N 35°30' E 139°46'0 0.0
2014-Sep-20 05:24N 35°30' E 139°46'0 0.0
2014-Sep-20 04:33N 35°30' E 139°46'7 6.7
2014-Sep-20 03:33N 35°24' E 139°46'7 7.3
2014-Sep-20 02:32N 35°19' E 139°39'0 0.0
2014-Sep-20 01:32N 35°19' E 139°39'0 0.0
2014-Sep-20 00:29N 35°19' E 139°39'0 0.0
2014-Sep-19 23:32N 35°19' E 139°39'0 0.1
2014-Sep-19 22:34N 35°19' E 139°39'8 8.0
2014-Sep-19 21:33N 35°14' E 139°47'24615.4
2014-Sep-19 05:33N 34°08' E 134°59'1919.3
2014-Sep-19 04:33N 34°26' E 135°05'1616.3
2014-Sep-19 03:33N 34°41' E 135°15'1 0.9
2014-Sep-19 02:32N 34°41' E 135°13'0 0.0
2014-Sep-19 01:32N 34°41' E 135°13'0 0.0
2014-Sep-19 00:32N 34°41' E 135°13'0 0.0
2014-Sep-18 23:32N 34°41' E 135°13'3 2.8
2014-Sep-18 22:33N 34°39' E 135°16'3 2.3
2014-Sep-18 21:23N 34°36' E 135°15'0 0.0
2014-Sep-18 20:29N 34°36' E 135°15'0 0.0
2014-Sep-18 19:29N 34°36' E 135°15'0 0.0
2014-Sep-18 18:29N 34°36' E 135°15'0 0.0
2014-Sep-18 17:29N 34°36' E 135°15'0 0.0
2014-Sep-18 16:32N 34°36' E 135°15'0 0.1
2014-Sep-18 15:32N 34°36' E 135°15'0 0.0
2014-Sep-18 14:29N 34°36' E 135°15'0 0.0
2014-Sep-18 13:29N 34°36' E 135°15'0 0.0
2014-Sep-18 12:29N 34°36' E 135°15'0 0.0
2014-Sep-18 11:32N 34°36' E 135°15'1 1.3
2014-Sep-18 10:33N 34°36' E 135°14'1717.3
2014-Sep-18 09:33N 34°35' E 134°53'  
2014-Sep-15 03:13N 34°33' E 134°47'1420.7
2014-Sep-15 02:33N 34°36' E 135°03'9 9.1
2014-Sep-15 01:31N 34°41' E 135°13'0 0.0
2014-Sep-15 00:31N 34°41' E 135°13'0 0.0
2014-Sep-14 23:33N 34°41' E 135°13'1 1.1
2014-Sep-14 22:33N 34°40' E 135°15'1211.5
2014-Sep-14 21:33N 34°30' E 135°10'1313.5
2014-Sep-14 20:33N 34°19' E 135°00'1313.4
2014-Sep-14 19:33N 34°05' E 134°60'226 7.8
2014-Sep-13 14:25N 34°58' E 139°27'1720.2
2014-Sep-13 13:33N 35°08' E 139°44'1413.6
2014-Sep-13 12:33N 35°21' E 139°42'10 9.5
2014-Sep-13 11:33N 35°30' E 139°46'0 0.0
2014-Sep-13 10:33N 35°30' E 139°46'0 0.0
2014-Sep-13 09:33N 35°30' E 139°46'0 0.0
2014-Sep-13 08:33N 35°30' E 139°46'0 0.0
2014-Sep-13 07:33N 35°30' E 139°46'0 0.0
2014-Sep-13 06:33N 35°30' E 139°46'0 0.0
2014-Sep-13 05:34N 35°30' E 139°46'0 0.0
2014-Sep-13 04:34N 35°30' E 139°46'5 5.0
2014-Sep-13 03:34N 35°25' E 139°45'8 8.0
2014-Sep-13 02:31N 35°19' E 139°39'0 0.0
2014-Sep-13 01:28N 35°19' E 139°39'0 0.0
2014-Sep-13 00:31N 35°19' E 139°39'0 0.0
2014-Sep-12 23:31N 35°19' E 139°39'0 0.1
2014-Sep-12 22:33N 35°19' E 139°39'8 8.2
2014-Sep-12 21:33N 35°14' E 139°47'24815.2
2014-Sep-12 05:13N 34°08' E 134°56'1418.8
2014-Sep-12 04:29N 34°21' E 134°60'1718.5
2014-Sep-12 03:33N 34°34' E 135°13'6 5.6
2014-Sep-12 02:24N 34°41' E 135°13'0 0.0
2014-Sep-12 01:24N 34°41' E 135°13'0 0.0
2014-Sep-12 00:24N 34°41' E 135°13'0 0.0
2014-Sep-11 23:33N 34°41' E 135°13'1 0.9
2014-Sep-11 22:33N 34°40' E 135°15'4 4.2
2014-Sep-11 21:33N 34°36' E 135°16'0 0.0
2014-Sep-11 20:33N 34°36' E 135°16'0 0.1
2014-Sep-11 19:33N 34°36' E 135°16'0 0.0
2014-Sep-11 18:27N 34°36' E 135°16'0 0.0
2014-Sep-11 17:33N 34°36' E 135°16'0 0.0
2014-Sep-11 16:33N 34°36' E 135°16'0 0.0
2014-Sep-11 15:33N 34°36' E 135°16'0 0.1
2014-Sep-11 14:33N 34°36' E 135°16'0 0.0
2014-Sep-11 13:33N 34°36' E 135°16'0 0.1
2014-Sep-11 12:33N 34°36' E 135°16'0 0.0
2014-Sep-11 11:33N 34°36' E 135°16'0 0.1
2014-Sep-11 10:33N 34°36' E 135°16'0 0.0
2014-Sep-11 09:33N 34°36' E 135°16'0 0.0
2014-Sep-11 08:33N 34°36' E 135°16'0 0.0
2014-Sep-11 07:27N 34°36' E 135°16'1516.5
2014-Sep-11 06:32N 34°37' E 134°58'  

Dump ship's entire track history